Time;durP1;ratioP1;P1;durP2;ratioP2;P2;SDS_P1;SDS_P2;PMS_P1;PMS_P2;Temp;Humidity;BMP_temperature;BMP_pressure;BME280_temperature;BME280_humidity;BME280_pressure;Samples;Min_cycle;Max_cycle;Signal;HPM_P1;HPM_P2
2021/09/27 00:00:49;;;;;;;7.65;3.75;;;;;;;17.70;45.16;94236.31;4972287;28;20504;-78
2021/09/27 00:03:16;;;;;;;5.78;4.35;;;;;;;17.68;45.16;94238.56;4973590;28;20670;-75
2021/09/27 00:05:41;;;;;;;7.30;3.70;;;;;;;16.84;45.27;94115.06;4975007;28;20805;-77
2021/09/27 00:08:07;;;;;;;6.10;3.70;;;;;;;17.58;45.18;94221.03;4978984;28;20022;-78
2021/09/27 00:10:41;;;;;;;5.63;3.35;;;;;;;17.72;45.17;94240.19;4970835;28;20475;-77
2021/09/27 00:13:08;;;;;;;5.10;3.70;;;;;;;17.68;45.30;94236.66;4989163;28;20076;-76
2021/09/27 00:15:38;;;;;;;3.72;3.25;;;;;;;17.71;44.99;94235.94;4979006;28;20145;-77
2021/09/27 00:18:04;;;;;;;4.38;3.55;;;;;;;17.70;44.99;94237.06;4975205;28;20042;-77
2021/09/27 00:20:30;;;;;;;4.32;3.38;;;;;;;17.63;45.08;94218.09;4976243;28;20042;-77
2021/09/27 00:22:55;;;;;;;5.28;3.33;;;;;;;17.47;45.36;94228.03;4975301;28;20019;-76
2021/09/27 00:25:25;;;;;;;3.83;3.20;;;;;;;17.39;45.86;94219.03;4975325;28;20026;-76
2021/09/27 00:27:50;;;;;;;4.88;3.55;;;;;;;17.48;45.67;94235.78;4979635;28;20591;-76
2021/09/27 00:30:19;;;;;;;6.65;3.85;;;;;;;17.26;46.25;94219.47;4980470;28;20129;-76
2021/09/27 00:32:45;;;;;;;4.80;3.20;;;;;;;17.33;46.36;94236.53;4960518;28;20714;-77
2021/09/27 00:35:13;;;;;;;4.93;3.50;;;;;;;17.41;46.34;94229.41;4979713;28;20469;-77
2021/09/27 00:37:43;;;;;;;4.53;3.35;;;;;;;17.34;45.88;94223.88;4972043;28;20390;-72
2021/09/27 00:40:12;;;;;;;4.40;3.67;;;;;;;17.34;45.91;94224.66;4972098;28;20527;-76
2021/09/27 00:42:38;;;;;;;7.15;3.75;;;;;;;17.31;46.27;94227.25;4974711;28;20307;-78
2021/09/27 00:45:07;;;;;;;4.15;3.33;;;;;;;17.27;46.26;94223.69;4964019;28;20504;-71
2021/09/27 00:47:32;;;;;;;5.28;4.15;;;;;;;17.30;46.08;94223.00;4968415;28;20037;-77
2021/09/27 00:49:58;;;;;;;4.40;3.55;;;;;;;17.31;46.13;94222.66;4978530;28;20026;-76
2021/09/27 00:52:25;;;;;;;6.47;3.78;;;;;;;17.16;46.12;94191.94;5006257;28;20143;-76
2021/09/27 00:54:51;;;;;;;4.55;4.15;;;;;;;17.29;45.83;94208.00;4975836;28;20259;-76
2021/09/27 00:57:22;;;;;;;7.07;4.10;;;;;;;17.25;46.20;94205.22;4978363;28;20058;-76
2021/09/27 00:59:51;;;;;;;4.35;3.05;;;;;;;17.25;46.40;94199.06;4977082;28;20038;-77
2021/09/27 01:02:17;;;;;;;5.40;4.55;;;;;;;17.08;46.31;94174.03;4962352;28;20468;-76
2021/09/27 01:04:43;;;;;;;9.52;4.15;;;;;;;17.22;46.27;94195.16;4978183;28;20134;-78
2021/09/27 01:08:01;;;;;;;5.20;4.40;;;;;;;17.17;46.49;94190.81;4975628;28;20587;-77
2021/09/27 01:11:00;;;;;;;5.00;4.20;;;;;;;17.20;46.42;94194.72;4983059;28;20040;-72
2021/09/27 01:13:50;;;;;;;7.22;4.30;;;;;;;17.14;46.54;94199.56;4976919;28;20574;-77
2021/09/27 01:16:39;;;;;;;4.60;3.80;;;;;;;17.10;46.70;94198.69;4974793;28;20042;-78
2021/09/27 01:19:42;;;;;;;6.68;4.03;;;;;;;17.09;46.56;94196.31;4972307;28;20064;-78
2021/09/27 01:22:14;;;;;;;5.82;4.45;;;;;;;17.05;46.75;94185.50;4980851;28;20038;-76
2021/09/27 01:24:58;;;;;;;5.88;4.65;;;;;;;17.04;46.72;94193.88;4983803;28;20058;-76
2021/09/27 01:27:44;;;;;;;6.65;4.90;;;;;;;17.00;46.68;94184.97;4975469;28;20563;-78
2021/09/27 01:30:10;;;;;;;6.05;4.30;;;;;;;16.99;47.11;94186.88;4972809;28;20057;-76
2021/09/27 01:32:48;;;;;;;4.85;4.40;;;;;;;16.98;47.06;94182.59;4973178;28;20034;-76
2021/09/27 01:35:28;;;;;;;5.05;3.78;;;;;;;16.98;47.18;94179.13;4972525;28;20405;-77
2021/09/27 01:38:18;;;;;;;7.80;5.05;;;;;;;16.98;47.03;94179.91;4974183;28;20053;-78
2021/09/27 01:41:06;;;;;;;6.57;4.80;;;;;;;16.95;47.11;94183.31;4976184;28;20478;-77
2021/09/27 01:44:14;;;;;;;9.15;4.85;;;;;;;16.95;47.01;94190.59;4983873;28;20096;-76
2021/09/27 01:46:49;;;;;;;6.72;4.85;;;;;;;16.94;47.03;94186.31;4976975;28;20105;-77
2021/09/27 01:49:55;;;;;;;5.07;4.53;;;;;;;16.91;46.98;94190.50;4974655;28;20042;-76
2021/09/27 01:52:32;;;;;;;6.30;4.35;;;;;;;16.86;47.23;94187.28;4972401;28;20038;-78
2021/09/27 01:55:09;;;;;;;6.00;4.82;;;;;;;16.84;47.23;94187.59;4975499;28;21088;-77
2021/09/27 01:57:52;;;;;;;8.40;4.43;;;;;;;16.82;47.56;94186.41;4978300;28;20125;-73
2021/09/27 02:00:25;;;;;;;6.10;4.03;;;;;;;16.77;47.58;94195.47;4974334;28;20629;-78
2021/09/27 02:02:58;;;;;;;4.78;4.18;;;;;;;16.63;47.66;94179.75;4974851;28;20046;-78
2021/09/27 02:05:36;;;;;;;7.55;4.43;;;;;;;16.63;47.66;94157.47;4982054;28;20036;-78
2021/09/27 02:08:02;;;;;;;4.30;3.90;;;;;;;16.78;47.66;94188.97;4973033;28;20102;-78
2021/09/27 02:10:58;;;;;;;6.22;4.30;;;;;;;16.83;47.62;94191.41;4976474;28;20046;-79
2021/09/27 02:13:37;;;;;;;6.47;4.68;;;;;;;16.69;47.96;94188.34;4982969;28;20125;-76
2021/09/27 02:16:10;;;;;;;7.53;3.90;;;;;;;16.68;48.19;94186.78;4974269;28;20516;-75
2021/09/27 02:18:46;;;;;;;5.47;4.47;;;;;;;16.69;47.79;94178.38;4990179;28;20703;-79
2021/09/27 02:21:17;;;;;;;4.97;3.72;;;;;;;16.68;47.96;94176.81;4982394;28;20045;-77
2021/09/27 02:24:01;;;;;;;5.38;3.80;;;;;;;16.73;47.92;94181.94;4982463;28;20477;-75
2021/09/27 02:26:27;;;;;;;5.63;4.57;;;;;;;16.65;47.95;94188.25;4978499;28;20089;-77
2021/09/27 02:28:54;;;;;;;5.53;4.10;;;;;;;16.67;47.98;94177.19;4984725;28;20038;-77
2021/09/27 02:31:25;;;;;;;5.78;4.40;;;;;;;16.68;47.86;94178.72;4975715;28;20038;-76
2021/09/27 02:33:58;;;;;;;4.97;4.47;;;;;;;16.66;47.82;94183.66;4979535;28;20046;-77
2021/09/27 02:36:34;;;;;;;5.28;4.28;;;;;;;16.61;47.45;94159.75;4972666;28;20053;-74
2021/09/27 02:39:19;;;;;;;5.97;4.88;;;;;;;16.75;47.54;94176.25;4986764;28;20034;-77
2021/09/27 02:41:50;;;;;;;4.90;3.85;;;;;;;16.70;47.40;94173.78;5009861;28;20951;-77
2021/09/27 02:44:16;;;;;;;4.90;4.10;;;;;;;16.37;47.37;94138.38;4965787;28;20458;-77
2021/09/27 02:46:44;;;;;;;6.05;4.95;;;;;;;16.60;47.27;94160.84;4975492;28;20046;-77
2021/09/27 02:49:14;;;;;;;6.32;4.60;;;;;;;16.66;47.62;94183.66;4979493;28;20034;-77
2021/09/27 02:51:43;;;;;;;5.07;4.57;;;;;;;16.61;47.61;94187.38;4965477;28;20432;-77
2021/09/27 02:54:10;;;;;;;5.95;4.18;;;;;;;16.60;47.71;94193.88;4981000;28;20046;-77
2021/09/27 02:57:13;;;;;;;4.28;3.85;;;;;;;16.57;47.79;94191.88;4966155;28;20035;-77
2021/09/27 02:59:57;;;;;;;5.28;4.03;;;;;;;16.50;47.94;94188.19;4982030;28;20026;-77
2021/09/27 03:02:28;;;;;;;5.60;4.45;;;;;;;16.43;48.07;94186.06;4973297;28;20034;-78
2021/09/27 03:05:25;;;;;;;5.45;3.78;;;;;;;16.69;47.40;94183.75;4975673;28;20053;-75
2021/09/27 03:08:19;;;;;;;7.13;4.30;;;;;;;16.73;47.50;94173.09;4972478;28;20504;-77
2021/09/27 03:11:17;;;;;;;5.85;4.25;;;;;;;16.73;47.45;94179.25;4973014;28;20042;-77
2021/09/27 03:14:16;;;;;;;4.85;3.92;;;;;;;16.74;47.14;94177.34;4975046;28;20080;-77
2021/09/27 03:16:47;;;;;;;6.55;4.15;;;;;;;16.49;47.29;94168.63;4969290;28;20050;-76
2021/09/27 03:19:47;;;;;;;5.82;4.05;;;;;;;16.37;47.95;94174.03;4977187;28;20471;-77
2021/09/27 03:22:19;;;;;;;6.85;4.43;;;;;;;16.26;48.40;94186.34;4976259;28;20038;-78
2021/09/27 03:25:04;;;;;;;6.90;4.50;;;;;;;16.11;48.86;94171.72;4982088;28;20077;-76
2021/09/27 03:27:42;;;;;;;8.85;4.63;;;;;;;16.16;48.63;94173.38;4969419;28;20065;-77
2021/09/27 03:30:14;;;;;;;5.40;4.88;;;;;;;16.26;48.54;94181.75;4969296;28;20475;-76
2021/09/27 03:33:02;;;;;;;7.07;4.72;;;;;;;16.05;48.51;94154.28;4965162;28;20070;-73
2021/09/27 03:36:03;;;;;;;5.57;4.35;;;;;;;16.11;49.00;94179.75;4985367;28;20027;-77
2021/09/27 03:38:40;;;;;;;7.25;5.60;;;;;;;16.03;49.00;94171.84;4963553;28;20077;-76
2021/09/27 03:41:08;;;;;;;7.65;5.10;;;;;;;16.17;48.82;94170.38;4975631;28;20034;-77
2021/09/27 03:43:57;;;;;;;5.85;4.80;;;;;;;15.95;48.80;94138.66;4982574;28;20034;-77
2021/09/27 03:46:37;;;;;;;8.65;5.25;;;;;;;16.00;49.14;94156.41;4979290;28;20052;-78
2021/09/27 03:49:37;;;;;;;9.32;5.47;;;;;;;15.93;49.29;94158.91;4993492;28;20534;-78
2021/09/27 03:52:10;;;;;;;8.60;5.38;;;;;;;15.86;49.14;94159.47;4972076;28;20042;-75
2021/09/27 03:54:47;;;;;;;6.80;4.72;;;;;;;15.77;49.41;94135.44;4977893;28;20042;-76
2021/09/27 03:57:25;;;;;;;5.82;5.18;;;;;;;15.95;49.25;94143.22;4975904;28;20109;-77
2021/09/27 04:00:03;;;;;;;10.82;4.88;;;;;;;15.85;49.11;94141.81;4977634;28;20038;-77
2021/09/27 04:02:43;;;;;;;7.40;4.80;;;;;;;15.88;49.44;94155.34;4989751;28;20022;-72
2021/09/27 04:05:26;;;;;;;8.23;5.28;;;;;;;16.00;49.48;94151.84;4977094;28;20069;-77
2021/09/27 04:08:07;;;;;;;5.72;5.18;;;;;;;15.88;49.24;94141.16;4973005;28;20066;-77
2021/09/27 04:10:43;;;;;;;6.60;4.95;;;;;;;15.64;49.56;94127.78;4978530;28;20046;-76
2021/09/27 04:13:27;;;;;;;8.88;5.70;;;;;;;15.66;49.79;94146.97;5007814;28;20065;-77
2021/09/27 04:16:08;;;;;;;10.50;5.65;;;;;;;15.83;49.48;94152.09;4976866;28;20500;-77
2021/09/27 04:18:40;;;;;;;8.63;5.65;;;;;;;15.79;49.89;94162.69;4974199;28;20042;-77
2021/09/27 04:21:19;;;;;;;7.00;6.07;;;;;;;15.56;50.63;94158.13;4977309;28;20088;-77
2021/09/27 04:24:13;;;;;;;7.65;5.55;;;;;;;15.61;50.49;94168.63;4975591;28;20034;-78
2021/09/27 04:26:44;;;;;;;10.07;6.53;;;;;;;15.38;51.42;94168.28;4982524;28;20048;-76
2021/09/27 04:29:28;;;;;;;8.50;5.50;;;;;;;15.38;51.41;94173.63;4977629;28;20038;-78
2021/09/27 04:31:53;;;;;;;7.30;5.90;;;;;;;15.34;51.24;94165.50;5008448;28;20097;-77
2021/09/27 04:34:31;;;;;;;11.18;6.70;;;;;;;15.28;51.39;94169.50;4978552;28;20555;-78
2021/09/27 04:36:57;;;;;;;9.57;7.60;;;;;;;15.24;51.58;94157.09;4967265;28;20092;-78
2021/09/27 04:39:26;;;;;;;8.52;5.95;;;;;;;15.27;51.83;94153.75;4976869;28;20051;-77
2021/09/27 04:42:29;;;;;;;10.40;5.47;;;;;;;15.37;51.88;94154.09;4968874;28;22465;-77
2021/09/27 04:45:29;;;;;;;7.78;5.07;;;;;;;15.48;51.51;94154.47;5002899;28;20917;-78
2021/09/27 04:48:09;;;;;;;9.43;4.90;;;;;;;15.43;51.70;94155.44;4971806;28;20382;-76
2021/09/27 04:50:54;;;;;;;5.80;4.15;;;;;;;15.63;51.32;94155.69;4971387;28;20130;-77
2021/09/27 04:54:00;;;;;;;5.63;4.70;;;;;;;15.78;51.36;94171.88;4977204;28;20140;-78
2021/09/27 04:56:33;;;;;;;6.97;4.47;;;;;;;15.90;50.51;94161.13;4968645;28;20158;-76
2021/09/27 04:58:59;;;;;;;10.00;5.80;;;;;;;15.96;50.64;94172.41;4972437;28;20026;-76
2021/09/27 05:01:58;;;;;;;7.47;4.97;;;;;;;16.08;50.30;94185.81;4971158;28;20042;-75
2021/09/27 05:04:33;;;;;;;7.13;5.95;;;;;;;16.05;50.06;94183.78;4975171;28;20531;-78
2021/09/27 05:07:25;;;;;;;11.55;5.68;;;;;;;16.03;49.74;94169.97;4976125;28;20046;-76
2021/09/27 05:10:12;;;;;;;11.77;6.20;;;;;;;16.38;49.47;94204.34;4969587;28;20531;-77
2021/09/27 05:13:02;;;;;;;14.13;7.95;;;;;;;16.38;49.46;94205.09;4978375;28;20042;-78
2021/09/27 05:15:42;;;;;;;17.10;6.63;;;;;;;16.35;49.43;94207.69;4978168;28;20034;-77
2021/09/27 05:18:10;;;;;;;13.13;7.60;;;;;;;16.44;49.26;94213.72;4977116;28;20146;-76
2021/09/27 05:21:04;;;;;;;16.25;7.20;;;;;;;16.34;49.68;94209.59;4974518;28;20575;-77
2021/09/27 05:24:15;;;;;;;13.98;7.82;;;;;;;16.27;49.79;94196.72;4976876;28;20273;-76
2021/09/27 05:26:59;;;;;;;18.90;8.25;;;;;;;16.26;50.09;94202.44;4976058;28;20701;-77
2021/09/27 05:29:38;;;;;;;20.65;7.72;;;;;;;16.47;49.88;94208.47;4976075;28;20030;-73
2021/09/27 05:32:12;;;;;;;14.18;7.47;;;;;;;16.62;49.55;94209.66;4978560;28;20512;-78
2021/09/27 05:34:59;;;;;;;12.75;7.75;;;;;;;16.43;50.24;94201.44;4978252;28;20420;-76
2021/09/27 05:37:32;;;;;;;15.43;7.78;;;;;;;16.43;50.12;94212.16;4973393;28;20440;-74
2021/09/27 05:40:13;;;;;;;16.67;8.32;;;;;;;16.46;50.05;94204.22;4987232;28;20134;-76
2021/09/27 05:43:12;;;;;;;15.68;8.35;;;;;;;16.51;49.50;94205.88;4971819;28;20413;-77
2021/09/27 05:45:47;;;;;;;15.52;9.27;;;;;;;16.63;49.01;94208.50;4971866;28;20042;-76
2021/09/27 05:48:31;;;;;;;13.50;8.05;;;;;;;16.70;48.92;94211.41;4973146;28;20050;-76
2021/09/27 05:51:18;;;;;;;11.73;8.40;;;;;;;16.73;49.00;94206.13;4972449;28;20431;-76
2021/09/27 05:53:52;;;;;;;14.30;9.07;;;;;;;16.76;49.12;94210.03;4975833;28;20097;-77
2021/09/27 05:56:27;;;;;;;13.57;8.23;;;;;;;16.86;49.13;94204.19;4975354;28;20062;-75
2021/09/27 05:58:52;;;;;;;12.65;8.27;;;;;;;16.90;49.20;94198.88;4975870;28;20042;-77
2021/09/27 06:01:33;;;;;;;18.05;9.57;;;;;;;16.92;49.02;94186.66;4974852;28;20038;-77
2021/09/27 06:04:37;;;;;;;15.77;9.00;;;;;;;17.02;48.63;94183.47;4987532;28;20436;-77
2021/09/27 06:07:15;;;;;;;15.52;9.10;;;;;;;17.12;48.66;94191.03;4971615;28;21172;-77
2021/09/27 06:10:10;;;;;;;12.48;8.07;;;;;;;17.30;48.24;94198.81;4972687;28;20508;-76
2021/09/27 06:12:44;;;;;;;24.83;11.48;;;;;;;17.48;48.35;94198.13;4976457;28;20077;-77
2021/09/27 06:15:12;;;;;;;22.33;10.63;;;;;;;17.48;48.41;94200.81;4967210;28;20531;-75
2021/09/27 06:17:53;;;;;;;16.77;11.60;;;;;;;17.57;48.56;94195.25;4962831;28;20283;-77
2021/09/27 06:20:33;;;;;;;23.65;9.90;;;;;;;17.67;47.93;94200.13;4978737;28;20046;-77
2021/09/27 06:23:18;;;;;;;21.75;12.13;;;;;;;17.71;48.19;94200.97;5010196;28;20525;-76
2021/09/27 06:26:06;;;;;;;26.25;10.63;;;;;;;17.76;48.43;94197.25;4978303;28;20038;-77
2021/09/27 06:29:00;;;;;;;25.02;10.77;;;;;;;17.69;49.13;94187.13;4976094;28;20074;-77
2021/09/27 06:31:32;;;;;;;22.13;11.80;;;;;;;17.72;49.49;94191.78;4980053;28;20803;-76
2021/09/27 06:34:23;;;;;;;21.60;11.25;;;;;;;17.88;48.31;94187.16;4974899;28;20850;-76
2021/09/27 06:36:50;;;;;;;18.85;10.20;;;;;;;17.92;47.89;94206.88;4977447;28;20042;-76
2021/09/27 06:39:22;;;;;;;24.90;11.13;;;;;;;18.04;47.62;94209.47;4980629;28;20520;-77
2021/09/27 06:41:50;;;;;;;26.13;11.43;;;;;;;18.00;47.50;94208.59;4980799;28;20037;-77
2021/09/27 06:44:16;;;;;;;18.48;10.90;;;;;;;18.13;46.75;94209.28;4980966;28;20034;-77
2021/09/27 06:46:43;;;;;;;18.75;9.82;;;;;;;18.06;46.87;94202.97;4976196;28;20202;-76
2021/09/27 06:49:09;;;;;;;15.95;8.65;;;;;;;18.22;46.45;94209.88;4977567;28;20038;-76
2021/09/27 06:51:42;;;;;;;14.07;9.20;;;;;;;18.33;45.36;94216.25;4978086;28;20045;-76
2021/09/27 06:54:09;;;;;;;18.20;10.23;;;;;;;18.46;45.16;94214.25;4994721;28;20055;-77
2021/09/27 06:56:34;;;;;;;17.77;9.85;;;;;;;18.39;45.37;94208.69;4970330;28;20026;-76
2021/09/27 06:59:00;;;;;;;16.55;8.95;;;;;;;18.27;45.51;94190.75;4978854;28;20038;-78
2021/09/27 07:01:25;;;;;;;19.17;10.32;;;;;;;18.30;46.78;94203.50;4981071;28;20034;-76
2021/09/27 07:03:50;;;;;;;17.15;11.60;;;;;;;18.53;46.40;94203.59;4979332;28;20034;-77
2021/09/27 07:06:16;;;;;;;23.75;12.00;;;;;;;18.28;46.50;94200.41;4980076;28;20173;-76
2021/09/27 07:08:41;;;;;;;22.05;12.63;;;;;;;18.19;46.59;94205.19;4979921;28;20539;-76
2021/09/27 07:11:07;;;;;;;24.60;12.23;;;;;;;18.33;46.76;94193.97;4981550;28;20035;-76
2021/09/27 07:13:32;;;;;;;24.13;13.07;;;;;;;18.52;46.58;94188.59;4980676;28;20042;-77
2021/09/27 07:15:58;;;;;;;17.75;11.15;;;;;;;18.69;46.20;94187.38;4978592;28;20125;-78
2021/09/27 07:18:23;;;;;;;18.05;10.65;;;;;;;18.87;45.62;94191.25;4979928;28;20126;-77
2021/09/27 07:20:49;;;;;;;25.67;10.55;;;;;;;18.92;45.60;94188.22;4977634;28;20393;-77
2021/09/27 07:23:14;;;;;;;18.25;10.55;;;;;;;18.80;45.34;94189.19;4981912;28;20029;-77
2021/09/27 07:25:40;;;;;;;18.25;10.50;;;;;;;18.89;45.71;94184.34;4976523;28;20042;-79
2021/09/27 07:28:06;;;;;;;17.35;9.40;;;;;;;19.12;45.36;94180.91;4978528;28;20034;-78
2021/09/27 07:30:33;;;;;;;21.05;9.50;;;;;;;18.97;45.05;94185.25;4979573;28;20066;-78
2021/09/27 07:32:59;;;;;;;19.05;10.65;;;;;;;18.96;45.37;94175.63;4979150;28;20050;-77
2021/09/27 07:35:27;;;;;;;22.75;11.52;;;;;;;18.50;46.08;94120.81;4978010;28;20049;-74
2021/09/27 07:37:53;;;;;;;32.20;12.70;;;;;;;18.91;46.27;94170.53;4980065;28;20042;-77
2021/09/27 07:40:23;;;;;;;25.35;12.15;;;;;;;19.09;46.38;94176.22;4978670;28;20049;-78
2021/09/27 07:42:49;;;;;;;18.70;10.90;;;;;;;19.17;46.07;94172.53;4977705;28;20046;-76
2021/09/27 07:45:17;;;;;;;18.00;9.70;;;;;;;19.42;45.92;94176.44;4979288;28;20402;-77
2021/09/27 07:47:43;;;;;;;16.95;9.32;;;;;;;19.48;45.22;94175.03;4977044;28;20041;-77
2021/09/27 07:50:09;;;;;;;16.52;9.02;;;;;;;19.65;45.21;94171.81;4977422;28;20026;-77
2021/09/27 07:52:35;;;;;;;12.43;8.23;;;;;;;19.86;45.33;94178.69;4977131;28;20761;-77
2021/09/27 07:55:01;;;;;;;11.85;8.32;;;;;;;19.94;44.88;94175.75;4979554;28;20082;-76
2021/09/27 08:16:21;;;;;;;18.05;9.68;;;;;;;20.32;42.06;94161.28;5033489;27;20498;-70
2021/09/27 08:18:47;;;;;;;15.85;9.35;;;;;;;20.20;42.80;94158.78;5064172;28;20703;-70
2021/09/27 08:21:17;;;;;;;13.48;8.82;;;;;;;20.09;43.06;94174.06;5004494;28;20337;-70
2021/09/27 08:23:42;;;;;;;14.10;10.05;;;;;;;19.89;43.17;94146.38;4971407;28;20042;-70
2021/09/27 08:26:08;;;;;;;18.90;9.63;;;;;;;19.89;43.29;94118.59;4973147;28;20030;-70
2021/09/27 08:28:36;;;;;;;18.33;9.90;;;;;;;20.10;42.88;94135.09;4993050;28;20105;-72
2021/09/27 08:31:10;;;;;;;15.23;8.02;;;;;;;20.49;42.82;94155.31;4990069;28;20176;-71
2021/09/27 08:33:37;;;;;;;23.67;8.93;;;;;;;20.36;43.22;94145.88;4988915;28;21043;-73
2021/09/27 08:36:05;;;;;;;15.18;8.25;;;;;;;20.47;43.35;94157.63;4990539;28;20053;-71
2021/09/27 08:38:36;;;;;;;22.35;9.52;;;;;;;20.45;42.84;94157.19;4993392;28;20500;-70
2021/09/27 08:41:05;;;;;;;19.25;8.85;;;;;;;20.58;43.08;94158.50;5005352;28;20735;-70
2021/09/27 08:44:02;;;;;;;14.45;8.18;;;;;;;20.58;42.95;94158.50;4993633;28;20044;-70
2021/09/27 08:46:42;;;;;;;16.92;8.70;;;;;;;20.59;43.16;94154.66;4974807;28;20046;-71
2021/09/27 08:49:24;;;;;;;16.77;8.43;;;;;;;20.55;42.63;94153.84;5000069;28;20046;-71
2021/09/27 08:51:50;;;;;;;17.92;7.80;;;;;;;20.49;42.81;94138.31;4990650;28;20042;-70
2021/09/27 08:54:25;;;;;;;15.52;7.60;;;;;;;20.59;42.95;94138.44;5001154;28;20026;-70
2021/09/27 08:57:00;;;;;;;;;;;;;;;20.77;43.16;94151.41;4999332;28;20069;-72
2021/09/27 08:59:47;;;;;;;14.43;8.00;;;;;;;20.84;42.98;94148.75;5015476;28;20292;-70
2021/09/27 09:02:31;;;;;;;16.10;7.60;;;;;;;20.94;42.96;94143.50;4994418;28;20043;-70
2021/09/27 09:05:16;;;;;;;18.90;9.63;;;;;;;20.93;42.99;94127.66;4996663;28;20042;-72
2021/09/27 09:07:53;;;;;;;18.98;7.53;;;;;;;21.28;42.18;94149.63;4997564;28;21214;-71
2021/09/27 09:10:46;;;;;;;20.52;8.13;;;;;;;21.38;42.17;94140.84;4990974;28;20477;-71
2021/09/27 09:13:20;;;;;;;13.88;7.38;;;;;;;21.32;42.17;94115.28;4995077;28;20061;-71
2021/09/27 09:15:57;;;;;;;13.32;7.45;;;;;;;21.29;42.52;94109.84;4983175;28;20092;-71
2021/09/27 09:18:28;;;;;;;13.07;7.50;;;;;;;21.42;43.02;94130.03;4982818;28;20038;-72
2021/09/27 09:21:00;;;;;;;15.38;7.00;;;;;;;21.52;42.34;94136.69;4983499;28;20042;-71
2021/09/27 09:23:37;;;;;;;18.45;7.32;;;;;;;21.72;40.92;94132.63;4978926;28;20038;-71
2021/09/27 09:26:06;;;;;;;12.38;7.63;;;;;;;21.83;40.40;94114.53;4985130;28;20857;-70
2021/09/27 09:28:33;;;;;;;16.85;7.82;;;;;;;21.77;41.53;94108.69;4983313;28;20571;-72
2021/09/27 09:31:15;;;;;;;22.42;7.50;;;;;;;21.90;41.33;94128.13;4979283;28;20451;-71
2021/09/27 09:33:47;;;;;;;11.45;7.22;;;;;;;21.90;41.62;94122.72;4986144;28;20042;-70
2021/09/27 09:36:17;;;;;;;15.15;7.65;;;;;;;22.07;41.73;94124.75;4976460;28;20508;-70
2021/09/27 09:38:44;;;;;;;13.43;6.75;;;;;;;22.16;40.27;94114.34;4980790;28;20085;-70
2021/09/27 09:41:10;;;;;;;14.20;7.15;;;;;;;22.22;40.79;94107.44;4993765;28;20428;-70
2021/09/27 09:43:40;;;;;;;20.95;6.93;;;;;;;22.36;40.60;94108.66;4983246;28;20030;-73
2021/09/27 09:46:31;;;;;;;10.73;6.80;;;;;;;22.45;39.81;94109.09;4983138;28;20050;-70
2021/09/27 09:49:09;;;;;;;8.98;6.15;;;;;;;22.29;39.98;94101.28;4975648;28;20038;-70
2021/09/27 09:51:42;;;;;;;11.35;6.75;;;;;;;22.42;40.38;94099.00;4980542;28;20046;-72
2021/09/27 09:54:07;;;;;;;15.00;6.40;;;;;;;22.52;39.84;94104.47;4982421;28;20111;-70
2021/09/27 09:56:36;;;;;;;8.68;5.93;;;;;;;22.55;40.18;94098.28;4979214;28;20211;-71
2021/09/27 09:59:15;;;;;;;13.93;6.63;;;;;;;22.72;40.41;94104.94;4981236;28;20513;-70
2021/09/27 10:01:41;;;;;;;15.68;6.68;;;;;;;22.69;39.40;94105.69;4984045;28;20177;-73
2021/09/27 10:04:21;;;;;;;8.70;6.00;;;;;;;22.84;39.07;94096.44;4977557;28;20526;-70
2021/09/27 10:06:49;;;;;;;10.00;6.70;;;;;;;22.68;39.26;94106.88;4980892;28;20527;-70
2021/09/27 10:09:25;;;;;;;12.38;7.07;;;;;;;22.62;39.08;94092.13;4989080;28;20050;-73
2021/09/27 10:11:54;;;;;;;15.13;6.32;;;;;;;22.75;39.10;94096.03;4986938;28;20517;-71
2021/09/27 10:14:21;;;;;;;9.63;6.55;;;;;;;22.85;38.47;94095.28;4979300;28;20055;-73
2021/09/27 10:16:54;;;;;;;9.57;5.82;;;;;;;22.96;38.56;94090.69;4978078;28;20030;-71
2021/09/27 10:19:23;;;;;;;10.23;5.72;;;;;;;23.17;39.24;94084.53;4978606;28;20027;-70
2021/09/27 10:22:07;;;;;;;8.82;5.45;;;;;;;23.15;37.28;94084.91;4977722;28;20621;-70
2021/09/27 10:24:38;;;;;;;18.88;7.10;;;;;;;22.93;38.52;94064.31;4981788;28;20413;-69
2021/09/27 10:27:16;;;;;;;13.18;6.63;;;;;;;22.95;38.01;94048.47;4982401;28;21162;-70
2021/09/27 10:29:42;;;;;;;14.40;6.43;;;;;;;23.06;37.70;94062.81;4979897;28;20050;-71
2021/09/27 10:32:29;;;;;;;18.15;6.00;;;;;;;23.06;36.64;94065.53;4983666;28;20125;-70
2021/09/27 10:34:58;;;;;;;7.90;5.53;;;;;;;23.00;36.44;94069.78;4978952;28;20054;-71
2021/09/27 10:37:27;;;;;;;11.55;6.05;;;;;;;23.10;36.97;94063.59;4981321;28;20030;-70
2021/09/27 10:39:56;;;;;;;11.93;5.35;;;;;;;22.97;36.83;94061.63;4978862;28;20042;-72
2021/09/27 10:42:42;;;;;;;6.72;5.45;;;;;;;23.13;36.87;94054.66;4975227;28;20119;-72
2021/09/27 10:45:09;;;;;;;10.07;5.10;;;;;;;23.18;37.71;94039.94;4987603;28;20032;-72
2021/09/27 10:47:39;;;;;;;15.32;6.13;;;;;;;23.46;37.34;94041.88;4982520;28;20099;-72
2021/09/27 10:50:33;;;;;;;14.05;6.05;;;;;;;23.65;37.13;94038.78;4975043;28;20050;-73
2021/09/27 10:53:15;;;;;;;13.70;5.73;;;;;;;23.51;37.16;94030.66;4968339;28;20603;-72
2021/09/27 10:56:02;;;;;;;9.23;5.90;;;;;;;23.51;36.51;94028.69;4972824;28;20046;-71
2021/09/27 10:58:33;;;;;;;12.02;6.28;;;;;;;23.31;36.85;94007.78;4981324;28;20141;-71
2021/09/27 11:00:58;;;;;;;11.60;6.10;;;;;;;23.32;36.87;94015.50;4977518;28;20045;-73
2021/09/27 11:03:58;;;;;;;12.20;5.88;;;;;;;23.57;37.42;94018.22;4980005;28;20034;-72
2021/09/27 11:06:48;;;;;;;10.35;6.60;;;;;;;23.49;36.67;94019.41;5008235;28;20045;-74
2021/09/27 11:09:26;;;;;;;10.45;5.53;;;;;;;23.50;36.91;94010.09;4974398;28;20413;-71
2021/09/27 11:12:12;;;;;;;6.82;5.18;;;;;;;23.39;36.29;94014.75;4974454;28;20053;-72
2021/09/27 11:15:09;;;;;;;10.13;5.13;;;;;;;23.47;36.47;94006.19;4975926;28;20602;-74
2021/09/27 11:18:03;;;;;;;9.50;5.57;;;;;;;23.75;35.85;94001.91;4976408;28;20042;-73
2021/09/27 11:20:59;;;;;;;6.05;4.55;;;;;;;23.68;36.37;94005.41;4993333;28;20460;-74
2021/09/27 11:23:37;;;;;;;13.27;4.95;;;;;;;23.74;36.57;94001.13;4975685;28;20047;-71
2021/09/27 11:26:27;;;;;;;7.75;4.78;;;;;;;23.71;35.89;93982.91;4969556;28;20038;-74
2021/09/27 11:29:18;;;;;;;10.85;5.72;;;;;;;23.84;36.08;94000.34;4981201;28;20045;-72
2021/09/27 11:31:45;;;;;;;12.35;5.30;;;;;;;23.87;35.29;93996.81;4981399;28;20361;-75
2021/09/27 11:34:42;;;;;;;14.02;5.47;;;;;;;23.99;35.52;93971.19;4971887;28;20545;-72
2021/09/27 11:37:25;;;;;;;9.65;4.95;;;;;;;24.05;35.41;93985.13;4979962;28;20409;-71
2021/09/27 11:40:06;;;;;;;8.73;5.05;;;;;;;24.13;35.50;93975.81;4971008;28;20553;-73
2021/09/27 11:42:46;;;;;;;14.00;5.90;;;;;;;24.07;35.59;93982.78;4978427;28;20042;-73
2021/09/27 11:45:18;;;;;;;13.93;5.75;;;;;;;24.08;35.77;93973.47;4976166;28;20233;-73
2021/09/27 11:47:44;;;;;;;10.38;5.68;;;;;;;24.27;35.63;93983.88;4983109;28;20034;-72
2021/09/27 11:50:45;;;;;;;8.43;5.72;;;;;;;24.18;35.54;93978.13;4977548;28;20042;-72
2021/09/27 11:53:29;;;;;;;11.75;5.70;;;;;;;24.21;34.97;93982.75;4982340;28;20157;-72
2021/09/27 11:56:02;;;;;;;12.13;6.47;;;;;;;24.37;36.99;93953.94;4979607;28;20022;-72
2021/09/27 11:58:43;;;;;;;10.50;5.63;;;;;;;24.58;37.86;93980.22;4979636;28;20026;-72
2021/09/27 12:01:27;;;;;;;18.10;5.78;;;;;;;24.57;36.13;93967.03;4974786;28;20045;-71
2021/09/27 12:04:00;;;;;;;15.30;6.00;;;;;;;24.50;34.52;93967.06;4975851;28;20193;-73
2021/09/27 12:06:32;;;;;;;13.73;5.53;;;;;;;24.64;34.59;93973.19;4975332;28;20038;-72
2021/09/27 12:09:04;;;;;;;11.02;5.65;;;;;;;24.79;34.59;93969.22;4967859;28;20780;-72
2021/09/27 12:11:34;;;;;;;12.77;5.90;;;;;;;24.98;34.21;93964.44;4985304;28;20123;-73
2021/09/27 12:14:03;;;;;;;14.80;5.85;;;;;;;25.03;34.08;93966.75;4978331;28;20066;-72
2021/09/27 12:16:34;;;;;;;11.95;5.65;;;;;;;25.05;33.70;93972.53;4983227;28;20045;-72
2021/09/27 12:19:13;;;;;;;10.25;5.40;;;;;;;25.07;33.06;93968.25;4978029;28;20035;-72
2021/09/27 12:21:42;;;;;;;9.55;5.05;;;;;;;25.03;33.45;93966.75;4978732;28;20044;-72
2021/09/27 12:24:12;;;;;;;8.63;4.80;;;;;;;25.07;34.06;93948.44;4977572;28;20032;-73
2021/09/27 12:26:41;;;;;;;9.85;5.38;;;;;;;25.27;33.97;93957.59;4981543;28;20034;-72
2021/09/27 12:29:17;;;;;;;12.73;4.68;;;;;;;25.30;33.60;93956.78;4979302;28;20046;-74
2021/09/27 12:31:52;;;;;;;21.02;6.10;;;;;;;24.97;33.65;93925.59;4978448;28;20073;-72